KISP/ISP METAR and TAF weather

Enter ICAO airport designator
Station Type Date Time Source
KISP METAR 2022/06/28 08:56 UTC NOAA

KISP 280856Z AUTO 36006KT 10SM CLR 16/13 A3006 RMK AO2 SLP178 T01610128 53010


Station Type Date Time Source
KISP Decoded METAR 2022/06/28 08:56 UTC NOAA

ISLIP LONG ISLAND MAC ART, NY, United States (KISP) 40-48N 073-06W 43M
Jun 28, 2022 - 04:56 AM EDT / 2022.06.28 0856 UTC
Wind: from the N (360 degrees) at 7 MPH (6 KT):0
Visibility: 10 mile(s):0
Sky conditions: clear
Temperature: 61.0 F (16.1 C)
Dew Point: 55.0 F (12.8 C)
Relative Humidity: 80%
Pressure (altimeter): 30.06 in. Hg (1017 hPa)
Pressure tendency: 0.03 inches (1.0 hPa) higher than three hours ago
ob: KISP 280856Z AUTO 36006KT 10SM CLR 16/13 A3006 RMK AO2 SLP178 T01610128 53010
cycle: 9

Station Type Date Time Source
KISP TAF 2022/06/28 09:42 UTC NOAA

TAF
AMD KISP 280840Z 2809/2906 33006KT P6SM FEW050 BKN150
FM281000 34009KT P6SM SCT050 BKN250
FM281600 31008KT P6SM FEW050 SCT250
FM282000 24009KT P6SM SCT050
FM290200 VRB04KT P6SM FEW050 FEW250

Example: see airport list